sensor_id;sensor_type;location;lat;lon;timestamp;temperature;humidity
43627;DHT22;29217;52.586;13.442;2022-12-24T00:02:17;5.70;99.90
43627;DHT22;29217;52.586;13.442;2022-12-24T00:04:43;5.70;99.90
43627;DHT22;29217;52.586;13.442;2022-12-24T00:07:08;5.70;99.90
43627;DHT22;29217;52.586;13.442;2022-12-24T00:09:34;5.70;99.90
43627;DHT22;29217;52.586;13.442;2022-12-24T00:12:00;5.70;99.90
43627;DHT22;29217;52.586;13.442;2022-12-24T00:14:25;5.70;99.90
43627;DHT22;29217;52.586;13.442;2022-12-24T00:16:51;5.70;99.90
43627;DHT22;29217;52.586;13.442;2022-12-24T00:19:16;5.70;99.90
43627;DHT22;29217;52.586;13.442;2022-12-24T00:21:42;5.70;99.90
43627;DHT22;29217;52.586;13.442;2022-12-24T00:24:08;5.70;99.90
43627;DHT22;29217;52.586;13.442;2022-12-24T00:26:34;5.70;99.90
43627;DHT22;29217;52.586;13.442;2022-12-24T00:29:00;5.70;99.90
43627;DHT22;29217;52.586;13.442;2022-12-24T00:31:25;5.70;99.90
43627;DHT22;29217;52.586;13.442;2022-12-24T00:33:51;5.60;99.90
43627;DHT22;29217;52.586;13.442;2022-12-24T00:36:18;5.70;99.90
43627;DHT22;29217;52.586;13.442;2022-12-24T00:38:44;5.60;99.90
43627;DHT22;29217;52.586;13.442;2022-12-24T00:41:11;5.70;99.90
43627;DHT22;29217;52.586;13.442;2022-12-24T00:43:56;5.70;99.90
43627;DHT22;29217;52.586;13.442;2022-12-24T00:46:23;5.70;99.90
43627;DHT22;29217;52.586;13.442;2022-12-24T00:48:49;5.60;99.90
43627;DHT22;29217;52.586;13.442;2022-12-24T00:51:15;5.70;99.90
43627;DHT22;29217;52.586;13.442;2022-12-24T00:53:41;5.60;99.90
43627;DHT22;29217;52.586;13.442;2022-12-24T00:56:07;5.70;99.90
43627;DHT22;29217;52.586;13.442;2022-12-24T00:58:32;5.60;99.90
43627;DHT22;29217;52.586;13.442;2022-12-24T01:00:58;5.60;99.90
43627;DHT22;29217;52.586;13.442;2022-12-24T01:03:24;5.60;99.90
43627;DHT22;29217;52.586;13.442;2022-12-24T01:06:06;5.60;99.90
43627;DHT22;29217;52.586;13.442;2022-12-24T01:08:33;5.60;99.90
43627;DHT22;29217;52.586;13.442;2022-12-24T01:11:00;5.60;99.90
43627;DHT22;29217;52.586;13.442;2022-12-24T01:13:25;5.70;99.90
43627;DHT22;29217;52.586;13.442;2022-12-24T01:15:51;5.60;99.90
43627;DHT22;29217;52.586;13.442;2022-12-24T01:18:17;5.60;99.90
43627;DHT22;29217;52.586;13.442;2022-12-24T01:20:42;5.60;99.90
43627;DHT22;29217;52.586;13.442;2022-12-24T01:23:08;5.60;99.90
43627;DHT22;29217;52.586;13.442;2022-12-24T01:25:35;5.60;99.90
43627;DHT22;29217;52.586;13.442;2022-12-24T01:28:01;5.60;99.90
43627;DHT22;29217;52.586;13.442;2022-12-24T01:30:26;5.60;99.90
43627;DHT22;29217;52.586;13.442;2022-12-24T01:32:52;5.60;99.90
43627;DHT22;29217;52.586;13.442;2022-12-24T01:35:18;5.60;99.90
43627;DHT22;29217;52.586;13.442;2022-12-24T01:37:43;5.60;99.90
43627;DHT22;29217;52.586;13.442;2022-12-24T01:40:14;5.50;99.90
43627;DHT22;29217;52.586;13.442;2022-12-24T01:42:58;5.50;99.90
43627;DHT22;29217;52.586;13.442;2022-12-24T01:48:33;5.50;99.90
43627;DHT22;29217;52.586;13.442;2022-12-24T01:53:44;5.50;99.90
43627;DHT22;29217;52.586;13.442;2022-12-24T01:56:11;5.50;99.90
43627;DHT22;29217;52.586;13.442;2022-12-24T01:58:39;5.50;99.90
43627;DHT22;29217;52.586;13.442;2022-12-24T02:01:07;5.50;99.90
43627;DHT22;29217;52.586;13.442;2022-12-24T02:03:33;5.50;99.90
43627;DHT22;29217;52.586;13.442;2022-12-24T02:05:59;5.50;99.90
43627;DHT22;29217;52.586;13.442;2022-12-24T02:08:25;5.50;99.90
43627;DHT22;29217;52.586;13.442;2022-12-24T02:11:12;5.50;99.90
43627;DHT22;29217;52.586;13.442;2022-12-24T02:13:37;5.50;99.90
43627;DHT22;29217;52.586;13.442;2022-12-24T02:16:26;5.50;99.90
43627;DHT22;29217;52.586;13.442;2022-12-24T02:27:28;5.50;99.90
43627;DHT22;29217;52.586;13.442;2022-12-24T02:30:23;5.50;99.90
43627;DHT22;29217;52.586;13.442;2022-12-24T02:35:46;5.60;99.90
43627;DHT22;29217;52.586;13.442;2022-12-24T02:38:19;5.50;99.90
43627;DHT22;29217;52.586;13.442;2022-12-24T02:41:01;5.60;99.90
43627;DHT22;29217;52.586;13.442;2022-12-24T02:43:32;5.50;99.90
43627;DHT22;29217;52.586;13.442;2022-12-24T02:46:11;5.60;99.90
43627;DHT22;29217;52.586;13.442;2022-12-24T02:48:40;5.60;99.90
43627;DHT22;29217;52.586;13.442;2022-12-24T02:51:09;5.60;99.90
43627;DHT22;29217;52.586;13.442;2022-12-24T02:53:36;5.60;99.90
43627;DHT22;29217;52.586;13.442;2022-12-24T03:04:51;5.60;99.90
43627;DHT22;29217;52.586;13.442;2022-12-24T03:07:28;5.60;99.90
43627;DHT22;29217;52.586;13.442;2022-12-24T03:12:49;5.60;99.90
43627;DHT22;29217;52.586;13.442;2022-12-24T03:15:19;5.60;99.90
43627;DHT22;29217;52.586;13.442;2022-12-24T03:17:47;5.60;99.90
43627;DHT22;29217;52.586;13.442;2022-12-24T03:20:20;5.60;99.90
43627;DHT22;29217;52.586;13.442;2022-12-24T03:22:47;5.60;99.90
43627;DHT22;29217;52.586;13.442;2022-12-24T03:25:12;5.60;99.90
43627;DHT22;29217;52.586;13.442;2022-12-24T03:27:39;5.60;99.90
43627;DHT22;29217;52.586;13.442;2022-12-24T03:30:10;5.60;99.90
43627;DHT22;29217;52.586;13.442;2022-12-24T03:32:37;5.50;99.90
43627;DHT22;29217;52.586;13.442;2022-12-24T03:35:03;5.50;99.90
43627;DHT22;29217;52.586;13.442;2022-12-24T03:37:28;5.50;99.90
43627;DHT22;29217;52.586;13.442;2022-12-24T03:39:54;5.50;99.90
43627;DHT22;29217;52.586;13.442;2022-12-24T03:42:20;5.50;99.90
43627;DHT22;29217;52.586;13.442;2022-12-24T03:44:45;5.50;99.90
43627;DHT22;29217;52.586;13.442;2022-12-24T03:47:11;5.50;99.90
43627;DHT22;29217;52.586;13.442;2022-12-24T03:49:36;5.50;99.90
43627;DHT22;29217;52.586;13.442;2022-12-24T03:52:02;5.50;99.90
43627;DHT22;29217;52.586;13.442;2022-12-24T03:54:28;5.50;99.90
43627;DHT22;29217;52.586;13.442;2022-12-24T03:56:53;5.50;99.90
43627;DHT22;29217;52.586;13.442;2022-12-24T03:59:19;5.50;99.90
43627;DHT22;29217;52.586;13.442;2022-12-24T04:01:44;5.50;99.90
43627;DHT22;29217;52.586;13.442;2022-12-24T04:04:10;5.50;99.90
43627;DHT22;29217;52.586;13.442;2022-12-24T04:06:35;5.50;99.90
43627;DHT22;29217;52.586;13.442;2022-12-24T04:09:01;5.50;99.90
43627;DHT22;29217;52.586;13.442;2022-12-24T04:11:30;5.50;99.90
43627;DHT22;29217;52.586;13.442;2022-12-24T04:13:56;5.50;99.90
43627;DHT22;29217;52.586;13.442;2022-12-24T04:16:21;5.50;99.90
43627;DHT22;29217;52.586;13.442;2022-12-24T04:18:47;5.50;99.90
43627;DHT22;29217;52.586;13.442;2022-12-24T04:21:13;5.50;99.90
43627;DHT22;29217;52.586;13.442;2022-12-24T04:23:40;5.50;99.90
43627;DHT22;29217;52.586;13.442;2022-12-24T04:26:08;5.50;99.90
43627;DHT22;29217;52.586;13.442;2022-12-24T04:28:35;5.50;99.90
43627;DHT22;29217;52.586;13.442;2022-12-24T04:31:04;5.40;99.90
43627;DHT22;29217;52.586;13.442;2022-12-24T04:33:30;5.40;99.90
43627;DHT22;29217;52.586;13.442;2022-12-24T04:36:00;5.40;99.90
43627;DHT22;29217;52.586;13.442;2022-12-24T04:38:26;5.50;99.90
43627;DHT22;29217;52.586;13.442;2022-12-24T04:41:03;5.50;99.90
43627;DHT22;29217;52.586;13.442;2022-12-24T04:43:29;5.40;99.90
43627;DHT22;29217;52.586;13.442;2022-12-24T04:45:56;5.40;99.90
43627;DHT22;29217;52.586;13.442;2022-12-24T04:48:27;5.50;99.90
43627;DHT22;29217;52.586;13.442;2022-12-24T04:50:53;5.50;99.90
43627;DHT22;29217;52.586;13.442;2022-12-24T04:53:18;5.50;99.90
43627;DHT22;29217;52.586;13.442;2022-12-24T04:55:45;5.50;99.90
43627;DHT22;29217;52.586;13.442;2022-12-24T04:58:11;5.50;99.90
43627;DHT22;29217;52.586;13.442;2022-12-24T05:00:38;5.50;99.90
43627;DHT22;29217;52.586;13.442;2022-12-24T05:03:04;5.60;99.90
43627;DHT22;29217;52.586;13.442;2022-12-24T05:05:29;5.60;99.90
43627;DHT22;29217;52.586;13.442;2022-12-24T05:07:55;5.60;99.90
43627;DHT22;29217;52.586;13.442;2022-12-24T05:10:20;5.70;99.90
43627;DHT22;29217;52.586;13.442;2022-12-24T05:12:46;5.70;99.90
43627;DHT22;29217;52.586;13.442;2022-12-24T05:15:12;5.70;99.90
43627;DHT22;29217;52.586;13.442;2022-12-24T05:17:38;5.70;99.90
43627;DHT22;29217;52.586;13.442;2022-12-24T05:20:04;5.70;99.90
43627;DHT22;29217;52.586;13.442;2022-12-24T05:22:30;5.70;99.90
43627;DHT22;29217;52.586;13.442;2022-12-24T05:25:14;5.70;99.90
43627;DHT22;29217;52.586;13.442;2022-12-24T05:27:58;5.70;99.90
43627;DHT22;29217;52.586;13.442;2022-12-24T05:30:24;5.70;99.90
43627;DHT22;29217;52.586;13.442;2022-12-24T05:32:49;5.70;99.90
43627;DHT22;29217;52.586;13.442;2022-12-24T05:35:15;5.70;99.90
43627;DHT22;29217;52.586;13.442;2022-12-24T05:37:41;5.70;99.90
43627;DHT22;29217;52.586;13.442;2022-12-24T05:40:07;5.70;99.90
43627;DHT22;29217;52.586;13.442;2022-12-24T05:42:32;5.60;99.90
43627;DHT22;29217;52.586;13.442;2022-12-24T05:44:58;5.70;99.90
43627;DHT22;29217;52.586;13.442;2022-12-24T05:47:24;5.70;99.90
43627;DHT22;29217;52.586;13.442;2022-12-24T05:49:49;5.70;99.90
43627;DHT22;29217;52.586;13.442;2022-12-24T05:52:15;5.60;99.90
43627;DHT22;29217;52.586;13.442;2022-12-24T05:54:40;5.60;99.90
43627;DHT22;29217;52.586;13.442;2022-12-24T05:57:06;5.60;99.90
43627;DHT22;29217;52.586;13.442;2022-12-24T05:59:32;5.60;99.90
43627;DHT22;29217;52.586;13.442;2022-12-24T06:01:58;5.60;99.90
43627;DHT22;29217;52.586;13.442;2022-12-24T06:04:23;5.60;99.90
43627;DHT22;29217;52.586;13.442;2022-12-24T06:06:49;5.50;99.90
43627;DHT22;29217;52.586;13.442;2022-12-24T06:09:14;5.50;99.90
43627;DHT22;29217;52.586;13.442;2022-12-24T06:11:41;5.60;99.90
43627;DHT22;29217;52.586;13.442;2022-12-24T06:14:07;5.50;99.90
43627;DHT22;29217;52.586;13.442;2022-12-24T06:16:32;5.50;99.90
43627;DHT22;29217;52.586;13.442;2022-12-24T06:18:58;5.50;99.90
43627;DHT22;29217;52.586;13.442;2022-12-24T06:21:23;5.50;99.90
43627;DHT22;29217;52.586;13.442;2022-12-24T06:23:49;5.50;99.90
43627;DHT22;29217;52.586;13.442;2022-12-24T06:26:20;5.50;99.90
43627;DHT22;29217;52.586;13.442;2022-12-24T06:28:47;5.50;99.90
43627;DHT22;29217;52.586;13.442;2022-12-24T06:31:15;5.50;99.90
43627;DHT22;29217;52.586;13.442;2022-12-24T06:33:41;5.50;99.90
43627;DHT22;29217;52.586;13.442;2022-12-24T06:36:09;5.50;99.90
43627;DHT22;29217;52.586;13.442;2022-12-24T06:38:34;5.50;99.90
43627;DHT22;29217;52.586;13.442;2022-12-24T06:41:05;5.60;99.90
43627;DHT22;29217;52.586;13.442;2022-12-24T06:43:31;5.50;99.90
43627;DHT22;29217;52.586;13.442;2022-12-24T06:45:59;5.60;99.90
43627;DHT22;29217;52.586;13.442;2022-12-24T06:48:25;5.60;99.90
43627;DHT22;29217;52.586;13.442;2022-12-24T06:50:51;5.50;99.90
43627;DHT22;29217;52.586;13.442;2022-12-24T06:53:16;5.60;99.90
43627;DHT22;29217;52.586;13.442;2022-12-24T06:55:43;5.60;99.90
43627;DHT22;29217;52.586;13.442;2022-12-24T06:58:08;5.60;99.90
43627;DHT22;29217;52.586;13.442;2022-12-24T07:00:34;5.60;99.90
43627;DHT22;29217;52.586;13.442;2022-12-24T07:03:00;5.60;99.90
43627;DHT22;29217;52.586;13.442;2022-12-24T07:05:26;5.60;99.90
43627;DHT22;29217;52.586;13.442;2022-12-24T07:07:52;5.60;99.90
43627;DHT22;29217;52.586;13.442;2022-12-24T07:10:18;5.50;99.90
43627;DHT22;29217;52.586;13.442;2022-12-24T07:12:44;5.50;99.90
43627;DHT22;29217;52.586;13.442;2022-12-24T07:15:11;5.40;99.90
43627;DHT22;29217;52.586;13.442;2022-12-24T07:17:37;5.50;99.90
43627;DHT22;29217;52.586;13.442;2022-12-24T07:20:04;5.40;99.90
43627;DHT22;29217;52.586;13.442;2022-12-24T07:22:30;5.40;99.90
43627;DHT22;29217;52.586;13.442;2022-12-24T07:24:56;5.40;99.90
43627;DHT22;29217;52.586;13.442;2022-12-24T07:27:21;5.50;99.90
43627;DHT22;29217;52.586;13.442;2022-12-24T07:29:47;5.50;99.90
43627;DHT22;29217;52.586;13.442;2022-12-24T07:32:13;5.60;99.90
43627;DHT22;29217;52.586;13.442;2022-12-24T07:34:38;5.50;99.90
43627;DHT22;29217;52.586;13.442;2022-12-24T07:37:05;5.60;99.90
43627;DHT22;29217;52.586;13.442;2022-12-24T07:39:30;5.50;99.90
43627;DHT22;29217;52.586;13.442;2022-12-24T07:41:56;5.50;99.90
43627;DHT22;29217;52.586;13.442;2022-12-24T07:44:21;5.60;99.90
43627;DHT22;29217;52.586;13.442;2022-12-24T07:46:47;5.60;99.90
43627;DHT22;29217;52.586;13.442;2022-12-24T07:49:13;5.60;99.90
43627;DHT22;29217;52.586;13.442;2022-12-24T07:51:38;5.60;99.90
43627;DHT22;29217;52.586;13.442;2022-12-24T07:54:04;5.60;99.90
43627;DHT22;29217;52.586;13.442;2022-12-24T07:56:33;5.60;99.90
43627;DHT22;29217;52.586;13.442;2022-12-24T07:58:59;5.60;99.90
43627;DHT22;29217;52.586;13.442;2022-12-24T08:01:24;5.60;99.90
43627;DHT22;29217;52.586;13.442;2022-12-24T08:03:50;5.60;99.90
43627;DHT22;29217;52.586;13.442;2022-12-24T08:06:21;5.60;99.90
43627;DHT22;29217;52.586;13.442;2022-12-24T08:08:47;5.60;99.90
43627;DHT22;29217;52.586;13.442;2022-12-24T08:11:13;5.60;99.90
43627;DHT22;29217;52.586;13.442;2022-12-24T08:13:39;5.70;99.90
43627;DHT22;29217;52.586;13.442;2022-12-24T08:16:04;5.60;99.90
43627;DHT22;29217;52.586;13.442;2022-12-24T08:18:30;5.60;99.90
43627;DHT22;29217;52.586;13.442;2022-12-24T08:20:56;5.60;99.90
43627;DHT22;29217;52.586;13.442;2022-12-24T08:23:22;5.70;99.90
43627;DHT22;29217;52.586;13.442;2022-12-24T08:25:48;5.60;99.90
43627;DHT22;29217;52.586;13.442;2022-12-24T08:28:16;5.60;99.90
43627;DHT22;29217;52.586;13.442;2022-12-24T08:30:43;5.60;99.90
43627;DHT22;29217;52.586;13.442;2022-12-24T08:33:09;5.60;99.90
43627;DHT22;29217;52.586;13.442;2022-12-24T08:35:35;5.60;99.90
43627;DHT22;29217;52.586;13.442;2022-12-24T08:38:01;5.60;99.90
43627;DHT22;29217;52.586;13.442;2022-12-24T08:40:27;5.60;99.90
43627;DHT22;29217;52.586;13.442;2022-12-24T08:42:52;5.60;99.90
43627;DHT22;29217;52.586;13.442;2022-12-24T08:45:18;5.70;99.90
43627;DHT22;29217;52.586;13.442;2022-12-24T08:47:44;5.60;99.90
43627;DHT22;29217;52.586;13.442;2022-12-24T08:50:11;5.70;99.90
43627;DHT22;29217;52.586;13.442;2022-12-24T08:52:36;5.70;99.90
43627;DHT22;29217;52.586;13.442;2022-12-24T08:55:03;5.70;99.90
43627;DHT22;29217;52.586;13.442;2022-12-24T08:57:28;5.80;99.90
43627;DHT22;29217;52.586;13.442;2022-12-24T08:59:54;5.80;99.90
43627;DHT22;29217;52.586;13.442;2022-12-24T09:02:20;5.80;99.90
43627;DHT22;29217;52.586;13.442;2022-12-24T09:04:45;5.80;99.90
43627;DHT22;29217;52.586;13.442;2022-12-24T09:07:11;5.80;99.90
43627;DHT22;29217;52.586;13.442;2022-12-24T09:09:37;5.70;99.90
43627;DHT22;29217;52.586;13.442;2022-12-24T09:12:06;5.70;99.90
43627;DHT22;29217;52.586;13.442;2022-12-24T09:14:32;5.70;99.90
43627;DHT22;29217;52.586;13.442;2022-12-24T09:16:57;5.70;99.90
43627;DHT22;29217;52.586;13.442;2022-12-24T09:19:24;5.80;99.90
43627;DHT22;29217;52.586;13.442;2022-12-24T09:21:50;5.80;99.90
43627;DHT22;29217;52.586;13.442;2022-12-24T09:24:15;5.80;99.90
43627;DHT22;29217;52.586;13.442;2022-12-24T09:26:41;5.80;99.90
43627;DHT22;29217;52.586;13.442;2022-12-24T09:29:07;5.90;99.90
43627;DHT22;29217;52.586;13.442;2022-12-24T09:31:35;5.80;99.90
43627;DHT22;29217;52.586;13.442;2022-12-24T09:34:01;5.80;99.90
43627;DHT22;29217;52.586;13.442;2022-12-24T09:36:26;5.80;99.90
43627;DHT22;29217;52.586;13.442;2022-12-24T09:38:52;5.80;99.90
43627;DHT22;29217;52.586;13.442;2022-12-24T09:44:40;5.80;99.90
43627;DHT22;29217;52.586;13.442;2022-12-24T09:49:48;5.90;99.90
43627;DHT22;29217;52.586;13.442;2022-12-24T09:52:53;5.90;99.90
43627;DHT22;29217;52.586;13.442;2022-12-24T09:55:31;5.90;99.90
43627;DHT22;29217;52.586;13.442;2022-12-24T09:57:59;5.90;99.90
43627;DHT22;29217;52.586;13.442;2022-12-24T10:08:22;6.10;99.90
43627;DHT22;29217;52.586;13.442;2022-12-24T10:10:56;6.10;99.90
43627;DHT22;29217;52.586;13.442;2022-12-24T10:19:02;6.20;99.90
43627;DHT22;29217;52.586;13.442;2022-12-24T10:25:01;6.20;99.90
43627;DHT22;29217;52.586;13.442;2022-12-24T10:27:05;6.20;99.90
43627;DHT22;29217;52.586;13.442;2022-12-24T10:29:35;6.20;99.90
43627;DHT22;29217;52.586;13.442;2022-12-24T10:34:44;6.20;99.90
43627;DHT22;29217;52.586;13.442;2022-12-24T10:39:40;6.10;99.90
43627;DHT22;29217;52.586;13.442;2022-12-24T10:42:07;6.10;99.90
43627;DHT22;29217;52.586;13.442;2022-12-24T10:44:33;6.20;99.90
43627;DHT22;29217;52.586;13.442;2022-12-24T10:46:59;6.20;99.90
43627;DHT22;29217;52.586;13.442;2022-12-24T10:49:35;6.20;99.90
43627;DHT22;29217;52.586;13.442;2022-12-24T10:59:40;6.30;99.90
43627;DHT22;29217;52.586;13.442;2022-12-24T11:02:29;6.30;99.90
43627;DHT22;29217;52.586;13.442;2022-12-24T11:04:56;6.30;99.90
43627;DHT22;29217;52.586;13.442;2022-12-24T11:07:24;6.30;99.90
43627;DHT22;29217;52.586;13.442;2022-12-24T11:14:59;6.40;99.90
43627;DHT22;29217;52.586;13.442;2022-12-24T11:19:51;5.50;99.90
43627;DHT22;29217;52.586;13.442;2022-12-24T12:05:25;6.80;99.90
43627;DHT22;29217;52.586;13.442;2022-12-24T12:08:16;7.00;99.90
43627;DHT22;29217;52.586;13.442;2022-12-24T12:10:44;6.90;99.90
43627;DHT22;29217;52.586;13.442;2022-12-24T12:18:14;7.20;99.90
43627;DHT22;29217;52.586;13.442;2022-12-24T12:20:46;6.60;99.90
43627;DHT22;29217;52.586;13.442;2022-12-24T12:26:09;6.80;99.90
43627;DHT22;29217;52.586;13.442;2022-12-24T12:31:33;7.00;99.90
43627;DHT22;29217;52.586;13.442;2022-12-24T12:36:42;7.10;99.90
43627;DHT22;29217;52.586;13.442;2022-12-24T12:39:10;7.10;99.90
43627;DHT22;29217;52.586;13.442;2022-12-24T12:47:28;7.10;99.90
43627;DHT22;29217;52.586;13.442;2022-12-24T12:55:38;7.10;99.90
43627;DHT22;29217;52.586;13.442;2022-12-24T13:01:06;7.20;99.90
43627;DHT22;29217;52.586;13.442;2022-12-24T13:12:46;7.50;99.90
43627;DHT22;29217;52.586;13.442;2022-12-24T13:15:36;7.40;99.90
43627;DHT22;29217;52.586;13.442;2022-12-24T13:20:50;7.60;99.90
43627;DHT22;29217;52.586;13.442;2022-12-24T13:23:19;7.40;99.90
43627;DHT22;29217;52.586;13.442;2022-12-24T13:25:49;7.50;99.90
43627;DHT22;29217;52.586;13.442;2022-12-24T13:30:53;7.60;99.90
43627;DHT22;29217;52.586;13.442;2022-12-24T13:38:49;7.60;99.90
43627;DHT22;29217;52.586;13.442;2022-12-24T13:49:29;7.90;99.90
43627;DHT22;29217;52.586;13.442;2022-12-24T13:52:16;7.70;99.90
43627;DHT22;29217;52.586;13.442;2022-12-24T14:05:56;7.90;99.90
43627;DHT22;29217;52.586;13.442;2022-12-24T17:51:47;6.50;99.90
43627;DHT22;29217;52.586;13.442;2022-12-24T17:54:13;6.60;99.90
43627;DHT22;29217;52.586;13.442;2022-12-24T17:56:38;6.70;99.90
43627;DHT22;29217;52.586;13.442;2022-12-24T17:59:04;6.80;99.90
43627;DHT22;29217;52.586;13.442;2022-12-24T18:01:29;7.00;99.90
43627;DHT22;29217;52.586;13.442;2022-12-24T18:03:57;7.10;99.90
43627;DHT22;29217;52.586;13.442;2022-12-24T18:06:24;6.90;99.90
43627;DHT22;29217;52.586;13.442;2022-12-24T18:08:50;7.00;99.90
43627;DHT22;29217;52.586;13.442;2022-12-24T18:11:19;7.00;99.90
43627;DHT22;29217;52.586;13.442;2022-12-24T18:13:46;7.10;99.90
43627;DHT22;29217;52.586;13.442;2022-12-24T18:16:19;7.20;99.90
43627;DHT22;29217;52.586;13.442;2022-12-24T18:18:46;7.10;99.90
43627;DHT22;29217;52.586;13.442;2022-12-24T18:21:14;7.20;99.90
43627;DHT22;29217;52.586;13.442;2022-12-24T18:23:43;7.30;99.90
43627;DHT22;29217;52.586;13.442;2022-12-24T18:26:09;7.30;99.90
43627;DHT22;29217;52.586;13.442;2022-12-24T18:28:35;7.40;99.90
43627;DHT22;29217;52.586;13.442;2022-12-24T18:33:32;7.20;99.90
43627;DHT22;29217;52.586;13.442;2022-12-24T18:35:58;7.30;99.90
43627;DHT22;29217;52.586;13.442;2022-12-24T18:38:24;7.50;99.90
43627;DHT22;29217;52.586;13.442;2022-12-24T18:40:50;7.50;99.90
43627;DHT22;29217;52.586;13.442;2022-12-24T18:43:16;7.50;99.90
43627;DHT22;29217;52.586;13.442;2022-12-24T18:45:42;7.60;99.90
43627;DHT22;29217;52.586;13.442;2022-12-24T18:48:08;7.60;99.90
43627;DHT22;29217;52.586;13.442;2022-12-24T18:50:35;7.50;99.90
43627;DHT22;29217;52.586;13.442;2022-12-24T18:53:01;7.70;99.90
43627;DHT22;29217;52.586;13.442;2022-12-24T18:55:27;7.50;99.90
43627;DHT22;29217;52.586;13.442;2022-12-24T18:57:53;7.50;99.90
43627;DHT22;29217;52.586;13.442;2022-12-24T19:00:18;7.40;99.90
43627;DHT22;29217;52.586;13.442;2022-12-24T19:02:44;7.40;99.90
43627;DHT22;29217;52.586;13.442;2022-12-24T19:05:10;7.20;99.90
43627;DHT22;29217;52.586;13.442;2022-12-24T19:07:35;7.50;99.90
43627;DHT22;29217;52.586;13.442;2022-12-24T19:10:02;7.30;99.90
43627;DHT22;29217;52.586;13.442;2022-12-24T19:12:27;7.30;99.90
43627;DHT22;29217;52.586;13.442;2022-12-24T19:14:53;7.30;99.90
43627;DHT22;29217;52.586;13.442;2022-12-24T19:17:18;7.30;99.90
43627;DHT22;29217;52.586;13.442;2022-12-24T19:19:44;7.40;99.90
43627;DHT22;29217;52.586;13.442;2022-12-24T19:22:10;7.40;99.90
43627;DHT22;29217;52.586;13.442;2022-12-24T19:24:35;7.40;99.90
43627;DHT22;29217;52.586;13.442;2022-12-24T19:27:01;7.50;99.90
43627;DHT22;29217;52.586;13.442;2022-12-24T19:29:26;7.40;99.90
43627;DHT22;29217;52.586;13.442;2022-12-24T19:31:52;7.60;99.90
43627;DHT22;29217;52.586;13.442;2022-12-24T19:34:18;7.60;99.90
43627;DHT22;29217;52.586;13.442;2022-12-24T19:36:44;7.50;99.90
43627;DHT22;29217;52.586;13.442;2022-12-24T19:39:11;7.60;99.90
43627;DHT22;29217;52.586;13.442;2022-12-24T19:41:36;7.60;99.90
43627;DHT22;29217;52.586;13.442;2022-12-24T19:44:02;7.60;99.90
43627;DHT22;29217;52.586;13.442;2022-12-24T19:46:30;7.70;99.90
43627;DHT22;29217;52.586;13.442;2022-12-24T19:48:59;7.60;99.90
43627;DHT22;29217;52.586;13.442;2022-12-24T19:51:26;7.80;99.90
43627;DHT22;29217;52.586;13.442;2022-12-24T19:53:56;7.50;99.90
43627;DHT22;29217;52.586;13.442;2022-12-24T19:56:23;7.50;99.90
43627;DHT22;29217;52.586;13.442;2022-12-24T19:58:49;7.60;99.90
43627;DHT22;29217;52.586;13.442;2022-12-24T20:01:18;7.70;99.90
43627;DHT22;29217;52.586;13.442;2022-12-24T20:03:44;7.70;99.90
43627;DHT22;29217;52.586;13.442;2022-12-24T20:06:11;7.60;99.90
43627;DHT22;29217;52.586;13.442;2022-12-24T20:08:38;7.50;99.90
43627;DHT22;29217;52.586;13.442;2022-12-24T20:11:16;7.60;99.90
43627;DHT22;29217;52.586;13.442;2022-12-24T20:13:42;7.50;99.90
43627;DHT22;29217;52.586;13.442;2022-12-24T20:16:12;7.60;99.90
43627;DHT22;29217;52.586;13.442;2022-12-24T20:18:38;7.40;99.90
43627;DHT22;29217;52.586;13.442;2022-12-24T20:21:06;7.50;99.90
43627;DHT22;29217;52.586;13.442;2022-12-24T20:23:33;7.40;99.90
43627;DHT22;29217;52.586;13.442;2022-12-24T20:26:01;7.60;99.90
43627;DHT22;29217;52.586;13.442;2022-12-24T20:28:31;7.50;99.90
43627;DHT22;29217;52.586;13.442;2022-12-24T20:30:56;7.60;99.90
43627;DHT22;29217;52.586;13.442;2022-12-24T20:33:23;7.50;99.90
43627;DHT22;29217;52.586;13.442;2022-12-24T20:35:48;7.50;99.90
43627;DHT22;29217;52.586;13.442;2022-12-24T20:38:14;7.50;99.90
43627;DHT22;29217;52.586;13.442;2022-12-24T20:40:41;7.50;99.90
43627;DHT22;29217;52.586;13.442;2022-12-24T20:43:07;7.60;99.90
43627;DHT22;29217;52.586;13.442;2022-12-24T20:45:32;7.60;99.90
43627;DHT22;29217;52.586;13.442;2022-12-24T20:47:58;7.50;99.90
43627;DHT22;29217;52.586;13.442;2022-12-24T20:50:24;7.60;99.90
43627;DHT22;29217;52.586;13.442;2022-12-24T20:52:51;7.60;99.90
43627;DHT22;29217;52.586;13.442;2022-12-24T20:55:18;7.80;99.90
43627;DHT22;29217;52.586;13.442;2022-12-24T20:57:46;7.60;99.90
43627;DHT22;29217;52.586;13.442;2022-12-24T21:07:32;7.60;99.90
43627;DHT22;29217;52.586;13.442;2022-12-24T21:09:58;7.80;99.90
43627;DHT22;29217;52.586;13.442;2022-12-24T22:29:30;7.60;99.90
43627;DHT22;29217;52.586;13.442;2022-12-24T22:31:56;7.60;99.90
43627;DHT22;29217;52.586;13.442;2022-12-24T22:34:21;7.70;99.90
43627;DHT22;29217;52.586;13.442;2022-12-24T22:36:47;7.70;99.90
43627;DHT22;29217;52.586;13.442;2022-12-24T22:39:13;7.60;99.90
43627;DHT22;29217;52.586;13.442;2022-12-24T22:41:38;7.70;99.90
43627;DHT22;29217;52.586;13.442;2022-12-24T22:44:04;7.70;99.90
43627;DHT22;29217;52.586;13.442;2022-12-24T22:46:29;7.50;99.90
43627;DHT22;29217;52.586;13.442;2022-12-24T22:48:55;7.70;99.90
43627;DHT22;29217;52.586;13.442;2022-12-24T22:56:15;7.50;99.90
43627;DHT22;29217;52.586;13.442;2022-12-24T23:01:07;7.50;99.90
43627;DHT22;29217;52.586;13.442;2022-12-24T23:03:33;7.70;99.90
43627;DHT22;29217;52.586;13.442;2022-12-24T23:06:03;7.60;99.90
43627;DHT22;29217;52.586;13.442;2022-12-24T23:08:31;7.50;99.90
43627;DHT22;29217;52.586;13.442;2022-12-24T23:11:27;7.50;99.90
43627;DHT22;29217;52.586;13.442;2022-12-24T23:13:52;7.60;99.90
43627;DHT22;29217;52.586;13.442;2022-12-24T23:16:36;7.50;99.90
43627;DHT22;29217;52.586;13.442;2022-12-24T23:19:03;7.50;99.90
43627;DHT22;29217;52.586;13.442;2022-12-24T23:21:30;7.40;99.90
43627;DHT22;29217;52.586;13.442;2022-12-24T23:23:58;7.40;99.90
43627;DHT22;29217;52.586;13.442;2022-12-24T23:26:24;7.50;99.90
43627;DHT22;29217;52.586;13.442;2022-12-24T23:28:50;7.40;99.90
43627;DHT22;29217;52.586;13.442;2022-12-24T23:31:18;7.30;99.90
43627;DHT22;29217;52.586;13.442;2022-12-24T23:33:44;7.30;99.90
43627;DHT22;29217;52.586;13.442;2022-12-24T23:36:10;7.30;99.90
43627;DHT22;29217;52.586;13.442;2022-12-24T23:38:36;7.40;99.90
43627;DHT22;29217;52.586;13.442;2022-12-24T23:41:03;7.30;99.90
43627;DHT22;29217;52.586;13.442;2022-12-24T23:43:29;7.30;99.90
43627;DHT22;29217;52.586;13.442;2022-12-24T23:45:55;7.30;99.90
43627;DHT22;29217;52.586;13.442;2022-12-24T23:48:22;7.30;99.90
43627;DHT22;29217;52.586;13.442;2022-12-24T23:50:48;7.30;99.90
43627;DHT22;29217;52.586;13.442;2022-12-24T23:53:15;7.10;99.90